Time;durP1;ratioP1;P1;durP2;ratioP2;P2;SDS_P1;SDS_P2;PMS_P1;PMS_P2;Temp;Humidity;BMP_temperature;BMP_pressure;BME280_temperature;BME280_humidity;BME280_pressure;Samples;Min_cycle;Max_cycle;Signal;HPM_P1;HPM_P2
2021/08/17 00:00:15;;;;;;;10.32;1.90;;;;;;;;;;5113941;28;20028;-67
2021/08/17 00:02:41;;;;;;;12.07;1.85;;;;;;;;;;5113993;28;20023;-67
2021/08/17 00:05:08;;;;;;;15.35;1.75;;;;;;;;;;5113779;28;20023;-67
2021/08/17 00:07:35;;;;;;;5.30;1.55;;;;;;;;;;5093941;28;20016;-68
2021/08/17 00:10:03;;;;;;;4.55;1.40;;;;;;;;;;5077870;28;20035;-68
2021/08/17 00:12:29;;;;;;;6.95;2.15;;;;;;;;;;5073274;28;20535;-68
2021/08/17 00:14:55;;;;;;;7.75;1.80;;;;;;;;;;5016446;28;20132;-67
2021/08/17 00:17:21;;;;;;;6.65;1.77;;;;;;;;;;4991121;28;20034;-67
2021/08/17 00:19:47;;;;;;;5.53;1.52;;;;;;;;;;4991331;28;20081;-67
2021/08/17 00:22:13;;;;;;;5.47;1.60;;;;;;;;;;4991724;28;20105;-67
2021/08/17 00:24:40;;;;;;;7.28;1.67;;;;;;;;;;4990820;28;20026;-66
2021/08/17 00:27:05;;;;;;;4.70;1.77;;;;;;;;;;4990898;28;20539;-66
2021/08/17 00:29:32;;;;;;;7.85;1.83;;;;;;;;;;4991028;28;20027;-66
2021/08/17 00:31:57;;;;;;;6.03;2.00;;;;;;;;;;4990763;28;20026;-66
2021/08/17 00:34:23;;;;;;;5.22;1.52;;;;;;;;;;4991178;28;20034;-67
2021/08/17 00:36:52;;;;;;;8.90;2.00;;;;;;;;;;4990813;28;20031;-67
2021/08/17 00:39:19;;;;;;;8.18;1.35;;;;;;;;;;4989720;28;20031;-67
2021/08/17 00:41:46;;;;;;;6.05;1.52;;;;;;;;;;4990698;28;20026;-67
2021/08/17 00:44:23;;;;;;;8.93;1.60;;;;;;;;;;4990795;28;20462;-68
2021/08/17 00:46:49;;;;;;;12.65;1.90;;;;;;;;;;5057867;28;20058;-67
2021/08/17 00:49:15;;;;;;;68.30;2.70;;;;;;;;;;5004751;28;20049;-68
2021/08/17 00:51:41;;;;;;;19.38;2.13;;;;;;;;;;5010579;28;20453;-69
2021/08/17 00:54:08;;;;;;;20.48;2.28;;;;;;;;;;5078000;28;20477;-67
2021/08/17 00:56:34;;;;;;;14.07;2.08;;;;;;;;;;5010393;28;20052;-67
2021/08/17 00:59:00;;;;;;;19.73;2.85;;;;;;;;;;5010384;28;20034;-68
2021/08/17 01:01:26;;;;;;;11.65;1.77;;;;;;;;;;5010285;28;20101;-68
2021/08/17 01:03:52;;;;;;;9.15;1.80;;;;;;;;;;5010206;28;20026;-68
2021/08/17 01:06:18;;;;;;;8.07;1.80;;;;;;;;;;5010294;28;20074;-68
2021/08/17 01:08:44;;;;;;;6.60;2.10;;;;;;;;;;4999062;28;20117;-68
2021/08/17 01:11:10;;;;;;;16.67;2.03;;;;;;;;;;4990427;28;20023;-68
2021/08/17 01:13:36;;;;;;;7.90;1.90;;;;;;;;;;5005032;28;20059;-67
2021/08/17 01:16:02;;;;;;;7.70;1.80;;;;;;;;;;5093012;28;20078;-68
2021/08/17 01:18:28;;;;;;;8.30;1.80;;;;;;;;;;5092498;28;20040;-68
2021/08/17 01:20:54;;;;;;;6.93;1.70;;;;;;;;;;5092830;28;20095;-68
2021/08/17 01:23:21;;;;;;;12.52;2.38;;;;;;;;;;5092540;28;20359;-67
2021/08/17 01:25:48;;;;;;;18.00;2.42;;;;;;;;;;5092712;28;20030;-68
2021/08/17 01:28:14;;;;;;;7.55;1.73;;;;;;;;;;5092657;28;20023;-67
2021/08/17 01:30:40;;;;;;;3.88;1.77;;;;;;;;;;5092434;28;20024;-67
2021/08/17 01:33:06;;;;;;;7.38;1.77;;;;;;;;;;5092544;28;20028;-67
2021/08/17 01:35:32;;;;;;;6.05;1.60;;;;;;;;;;5092817;28;20031;-67
2021/08/17 01:37:58;;;;;;;5.18;1.70;;;;;;;;;;5092607;28;20036;-67
2021/08/17 01:40:24;;;;;;;3.90;1.70;;;;;;;;;;5092347;28;20039;-67
2021/08/17 01:42:51;;;;;;;4.60;1.48;;;;;;;;;;5092389;28;20497;-67
2021/08/17 01:45:17;;;;;;;8.98;1.70;;;;;;;;;;5092611;28;20024;-67
2021/08/17 01:47:44;;;;;;;5.43;1.70;;;;;;;;;;5094131;28;20047;-67
2021/08/17 01:50:13;;;;;;;5.03;1.77;;;;;;;;;;5114634;28;20496;-67
2021/08/17 01:52:39;;;;;;;6.05;1.52;;;;;;;;;;5116597;28;20023;-67
2021/08/17 01:55:07;;;;;;;6.47;1.90;;;;;;;;;;5116380;28;20032;-68
2021/08/17 01:57:33;;;;;;;9.25;1.63;;;;;;;;;;5098103;28;20072;-68
2021/08/17 02:00:02;;;;;;;5.72;1.73;;;;;;;;;;5116387;28;20106;-68
2021/08/17 02:02:32;;;;;;;8.02;2.05;;;;;;;;;;5116169;28;20016;-67
2021/08/17 02:04:58;;;;;;;4.20;1.40;;;;;;;;;;5115622;28;20416;-68
2021/08/17 02:07:24;;;;;;;5.10;1.80;;;;;;;;;;5116142;28;20032;-68
2021/08/17 02:09:50;;;;;;;4.38;1.70;;;;;;;;;;5095861;28;20031;-68
2021/08/17 02:12:16;;;;;;;4.43;1.70;;;;;;;;;;5095724;28;20455;-67
2021/08/17 02:14:43;;;;;;;5.60;1.75;;;;;;;;;;5095314;28;20050;-68
2021/08/17 02:17:09;;;;;;;5.85;2.00;;;;;;;;;;5095657;28;20028;-69
2021/08/17 02:19:35;;;;;;;9.27;1.52;;;;;;;;;;5095566;28;20047;-69
2021/08/17 02:22:01;;;;;;;5.97;1.55;;;;;;;;;;5077483;28;20376;-69
2021/08/17 02:24:27;;;;;;;10.50;1.67;;;;;;;;;;5095532;28;20069;-69
2021/08/17 02:26:53;;;;;;;6.35;1.73;;;;;;;;;;5095842;28;20024;-70
2021/08/17 02:29:19;;;;;;;6.80;1.50;;;;;;;;;;5095743;28;20028;-70
2021/08/17 02:31:45;;;;;;;5.88;1.70;;;;;;;;;;5095628;28;20039;-70
2021/08/17 02:34:11;;;;;;;6.22;1.80;;;;;;;;;;5095532;28;20050;-69
2021/08/17 02:36:37;;;;;;;4.03;1.60;;;;;;;;;;5095402;28;20039;-70
2021/08/17 02:39:03;;;;;;;5.40;1.33;;;;;;;;;;5077160;28;20431;-71
2021/08/17 02:41:29;;;;;;;4.03;1.75;;;;;;;;;;5095275;28;20051;-69
2021/08/17 02:43:55;;;;;;;2.45;1.33;;;;;;;;;;5095698;28;20067;-69
2021/08/17 02:46:21;;;;;;;3.70;1.67;;;;;;;;;;5094989;28;20031;-68
2021/08/17 02:48:47;;;;;;;3.92;1.50;;;;;;;;;;5095085;28;20024;-68
2021/08/17 02:51:15;;;;;;;4.63;1.45;;;;;;;;;;5095389;28;20075;-68
2021/08/17 02:53:41;;;;;;;4.57;1.75;;;;;;;;;;5095346;28;20112;-68
2021/08/17 02:56:07;;;;;;;3.50;1.70;;;;;;;;;;5095111;28;20460;-68
2021/08/17 02:58:33;;;;;;;6.55;1.55;;;;;;;;;;5095177;28;20047;-68
2021/08/17 03:00:59;;;;;;;2.72;1.40;;;;;;;;;;5094526;28;20535;-68
2021/08/17 03:03:25;;;;;;;4.05;1.55;;;;;;;;;;5095017;28;20024;-68
2021/08/17 03:05:51;;;;;;;3.35;1.30;;;;;;;;;;5094726;28;20044;-68
2021/08/17 03:08:17;;;;;;;2.20;1.40;;;;;;;;;;5094501;28;20028;-67
2021/08/17 03:10:43;;;;;;;3.65;1.40;;;;;;;;;;5094442;28;20028;-67
2021/08/17 03:13:09;;;;;;;4.57;1.80;;;;;;;;;;5094584;28;20024;-68
2021/08/17 03:15:35;;;;;;;3.25;1.50;;;;;;;;;;5058913;28;20054;-67
2021/08/17 03:18:01;;;;;;;8.48;1.55;;;;;;;;;;4991938;28;20065;-67
2021/08/17 03:20:28;;;;;;;8.73;1.38;;;;;;;;;;4992125;28;20026;-67
2021/08/17 03:22:54;;;;;;;4.63;1.30;;;;;;;;;;4992229;28;20496;-67
2021/08/17 03:25:21;;;;;;;3.75;1.45;;;;;;;;;;4991764;28;20019;-67
2021/08/17 03:27:47;;;;;;;4.72;1.60;;;;;;;;;;4992224;28;20109;-67
2021/08/17 03:30:14;;;;;;;3.35;1.60;;;;;;;;;;4991774;28;20125;-67
2021/08/17 03:32:40;;;;;;;7.13;1.55;;;;;;;;;;4991902;28;20030;-66
2021/08/17 03:35:07;;;;;;;4.18;1.60;;;;;;;;;;4991411;28;20046;-66
2021/08/17 03:37:33;;;;;;;6.50;1.58;;;;;;;;;;4991645;28;20026;-67
2021/08/17 03:39:59;;;;;;;5.35;1.67;;;;;;;;;;4992077;28;20085;-66
2021/08/17 03:42:29;;;;;;;4.70;1.50;;;;;;;;;;4991592;28;20019;-66
2021/08/17 03:44:55;;;;;;;5.68;1.35;;;;;;;;;;4991820;28;20456;-66
2021/08/17 03:47:21;;;;;;;4.43;1.60;;;;;;;;;;4991778;28;20471;-66
2021/08/17 03:49:47;;;;;;;5.70;1.48;;;;;;;;;;5008930;28;20713;-66
2021/08/17 03:52:13;;;;;;;3.05;1.65;;;;;;;;;;5009932;28;20101;-67
2021/08/17 03:54:39;;;;;;;4.57;1.92;;;;;;;;;;5009928;28;20030;-67
2021/08/17 03:57:05;;;;;;;4.75;1.88;;;;;;;;;;5010424;28;20112;-66
2021/08/17 03:59:31;;;;;;;3.85;1.90;;;;;;;;;;5010274;28;20030;-67
2021/08/17 04:01:57;;;;;;;4.57;1.77;;;;;;;;;;5009929;28;20695;-67
2021/08/17 04:04:23;;;;;;;3.03;1.75;;;;;;;;;;5010636;28;20033;-67
2021/08/17 04:06:49;;;;;;;4.80;1.83;;;;;;;;;;5010676;28;20030;-67
2021/08/17 04:09:14;;;;;;;9.40;1.80;;;;;;;;;;4995521;28;20030;-67
2021/08/17 04:11:40;;;;;;;5.53;1.98;;;;;;;;;;5057445;28;20030;-66
2021/08/17 04:14:06;;;;;;;6.05;1.85;;;;;;;;;;5057757;28;20195;-67
2021/08/17 04:16:32;;;;;;;6.82;1.95;;;;;;;;;;4991172;28;20044;-66
2021/08/17 04:18:58;;;;;;;11.07;1.83;;;;;;;;;;4991029;28;20045;-67
2021/08/17 04:21:24;;;;;;;5.65;2.20;;;;;;;;;;4991225;28;20030;-67
2021/08/17 04:23:51;;;;;;;6.63;2.20;;;;;;;;;;4991219;28;20030;-67
2021/08/17 04:26:17;;;;;;;3.00;1.58;;;;;;;;;;5057407;28;20018;-67
2021/08/17 04:28:43;;;;;;;7.32;2.08;;;;;;;;;;4990881;28;20477;-66
2021/08/17 04:31:09;;;;;;;5.95;1.85;;;;;;;;;;4990682;28;20022;-67
2021/08/17 04:33:35;;;;;;;5.38;1.88;;;;;;;;;;4972083;28;20034;-67
2021/08/17 04:36:01;;;;;;;4.05;1.88;;;;;;;;;;4971172;28;20347;-67
2021/08/17 04:38:27;;;;;;;8.73;2.13;;;;;;;;;;4972734;28;20038;-66
2021/08/17 04:40:53;;;;;;;2.17;1.80;;;;;;;;;;4990584;28;20048;-67
2021/08/17 04:43:19;;;;;;;5.53;2.20;;;;;;;;;;4990812;28;20026;-67
2021/08/17 04:45:45;;;;;;;5.15;2.47;;;;;;;;;;4991089;28;20381;-67
2021/08/17 04:48:11;;;;;;;7.20;2.05;;;;;;;;;;5063552;28;20114;-67
2021/08/17 04:50:37;;;;;;;4.05;2.05;;;;;;;;;;5010285;28;20092;-67
2021/08/17 04:53:04;;;;;;;3.97;2.08;;;;;;;;;;5009960;28;20112;-67
2021/08/17 04:55:30;;;;;;;4.22;2.40;;;;;;;;;;5078007;28;20041;-66
2021/08/17 04:57:59;;;;;;;9.23;2.28;;;;;;;;;;5010318;28;20034;-67
2021/08/17 05:00:28;;;;;;;7.95;2.30;;;;;;;;;;5009924;28;20090;-67
2021/08/17 05:02:54;;;;;;;4.00;2.30;;;;;;;;;;5009949;28;20052;-67
2021/08/17 05:05:20;;;;;;;5.57;2.05;;;;;;;;;;5010068;28;20540;-67
2021/08/17 05:07:46;;;;;;;7.78;2.17;;;;;;;;;;5010261;28;20400;-67
2021/08/17 05:10:19;;;;;;;9.63;1.90;;;;;;;;;;5010188;28;20033;-66
2021/08/17 05:12:46;;;;;;;8.48;2.28;;;;;;;;;;5010273;28;20061;-66
2021/08/17 05:15:13;;;;;;;5.50;1.77;;;;;;;;;;5092553;28;20093;-66
2021/08/17 05:17:39;;;;;;;8.52;2.50;;;;;;;;;;5112949;28;20034;-67
2021/08/17 05:20:06;;;;;;;18.67;2.40;;;;;;;;;;5113096;28;20023;-67
2021/08/17 05:22:32;;;;;;;29.40;2.70;;;;;;;;;;5113265;28;20035;-67
2021/08/17 05:24:58;;;;;;;19.88;3.50;;;;;;;;;;5096428;28;20035;-66
2021/08/17 05:27:24;;;;;;;19.27;3.83;;;;;;;;;;5114380;28;20229;-66
2021/08/17 05:29:52;;;;;;;18.33;4.18;;;;;;;;;;5106797;28;20062;-67
2021/08/17 05:32:18;;;;;;;11.60;4.03;;;;;;;;;;5096830;28;20027;-67
2021/08/17 05:34:44;;;;;;;22.30;4.47;;;;;;;;;;5096665;28;20020;-67
2021/08/17 05:37:10;;;;;;;11.93;4.10;;;;;;;;;;5097059;28;20483;-67
2021/08/17 05:39:36;;;;;;;13.63;4.82;;;;;;;;;;5101354;28;20028;-67
2021/08/17 05:42:02;;;;;;;16.58;4.75;;;;;;;;;;5096376;28;20097;-66
2021/08/17 05:44:28;;;;;;;21.58;4.63;;;;;;;;;;5103464;28;20032;-67
2021/08/17 05:46:54;;;;;;;12.02;4.90;;;;;;;;;;5105480;28;20022;-67
2021/08/17 05:49:20;;;;;;;16.77;5.10;;;;;;;;;;5108123;28;20060;-67
2021/08/17 05:51:46;;;;;;;11.73;5.25;;;;;;;;;;5104689;28;20043;-66
2021/08/17 05:54:12;;;;;;;14.88;5.47;;;;;;;;;;5104750;28;20020;-68
2021/08/17 05:56:38;;;;;;;17.85;6.03;;;;;;;;;;5105966;28;20028;-67
2021/08/17 05:59:04;;;;;;;16.60;5.40;;;;;;;;;;5105927;28;20448;-65
2021/08/17 06:01:30;;;;;;;22.17;5.85;;;;;;;;;;5105828;28;20024;-65
2021/08/17 06:03:56;;;;;;;17.77;5.95;;;;;;;;;;5106110;28;20032;-65
2021/08/17 06:06:22;;;;;;;17.20;5.95;;;;;;;;;;5104613;28;20016;-64
2021/08/17 06:08:48;;;;;;;28.92;6.65;;;;;;;;;;5102053;28;20355;-64
2021/08/17 06:11:14;;;;;;;17.33;5.22;;;;;;;;;;5107649;28;20019;-64
2021/08/17 06:13:40;;;;;;;15.50;5.90;;;;;;;;;;5104233;28;20700;-65
2021/08/17 06:16:06;;;;;;;9.85;5.28;;;;;;;;;;5097445;28;20055;-64
2021/08/17 06:18:32;;;;;;;24.55;5.88;;;;;;;;;;5103072;28;20122;-65
2021/08/17 06:20:58;;;;;;;15.27;5.63;;;;;;;;;;5095286;28;20107;-65
2021/08/17 06:23:24;;;;;;;15.32;5.43;;;;;;;;;;5095451;28;20469;-65
2021/08/17 06:25:50;;;;;;;15.60;5.57;;;;;;;;;;5095476;28;20043;-65
2021/08/17 06:28:16;;;;;;;12.15;5.57;;;;;;;;;;5094486;28;20020;-64
2021/08/17 06:30:42;;;;;;;12.15;5.57;;;;;;;;;;5095396;28;20620;-65
2021/08/17 06:33:08;;;;;;;16.27;5.63;;;;;;;;;;5095588;28;20024;-65
2021/08/17 06:35:34;;;;;;;12.57;5.65;;;;;;;;;;5094745;28;20028;-65
2021/08/17 06:38:00;;;;;;;16.23;5.43;;;;;;;;;;5094363;28;20032;-65
2021/08/17 06:40:26;;;;;;;17.67;5.70;;;;;;;;;;5094924;28;20020;-67
2021/08/17 06:42:53;;;;;;;13.80;5.60;;;;;;;;;;5096047;28;20027;-66
2021/08/17 06:45:19;;;;;;;20.55;5.55;;;;;;;;;;5105920;28;20031;-67
2021/08/17 06:47:49;;;;;;;12.02;4.78;;;;;;;;;;5085785;28;20028;-67
2021/08/17 06:50:15;;;;;;;15.48;5.13;;;;;;;;;;5101096;28;20406;-67
2021/08/17 06:52:43;;;;;;;21.30;5.50;;;;;;;;;;5085394;28;20377;-67
2021/08/17 06:55:10;;;;;;;15.25;5.15;;;;;;;;;;5115613;28;20028;-67
2021/08/17 06:57:35;;;;;;;12.90;4.82;;;;;;;;;;5104971;28;20036;-67
2021/08/17 07:00:02;;;;;;;15.65;4.93;;;;;;;;;;5097322;28;20073;-67
2021/08/17 07:02:28;;;;;;;16.20;5.22;;;;;;;;;;5109409;28;20020;-66
2021/08/17 07:04:54;;;;;;;11.00;4.45;;;;;;;;;;5114819;28;20027;-67
2021/08/17 07:07:20;;;;;;;12.68;4.88;;;;;;;;;;5095540;28;20016;-67
2021/08/17 07:09:45;;;;;;;16.35;4.68;;;;;;;;;;5074098;28;20017;-67
2021/08/17 07:12:12;;;;;;;19.45;4.70;;;;;;;;;;5081121;28;20023;-67
2021/08/17 07:14:38;;;;;;;15.40;5.10;;;;;;;;;;5093396;28;20078;-67
2021/08/17 07:17:04;;;;;;;9.80;4.50;;;;;;;;;;5093938;28;20439;-67
2021/08/17 07:19:31;;;;;;;11.82;4.47;;;;;;;;;;5093636;28;20123;-67
2021/08/17 07:21:57;;;;;;;10.68;4.32;;;;;;;;;;5075766;28;20024;-66
2021/08/17 07:24:23;;;;;;;12.60;4.50;;;;;;;;;;5074978;28;20021;-65
2021/08/17 07:26:49;;;;;;;11.63;4.68;;;;;;;;;;5090398;28;20031;-65
2021/08/17 07:29:15;;;;;;;11.18;4.72;;;;;;;;;;5073843;28;20131;-64
2021/08/17 07:31:41;;;;;;;11.85;4.47;;;;;;;;;;5082345;28;20027;-65
2021/08/17 07:34:07;;;;;;;9.35;4.53;;;;;;;;;;5093991;28;20032;-65
2021/08/17 07:36:35;;;;;;;8.43;3.97;;;;;;;;;;5073747;28;20032;-65
2021/08/17 07:39:01;;;;;;;10.50;4.05;;;;;;;;;;5079520;28;20126;-65
2021/08/17 07:41:27;;;;;;;9.00;4.32;;;;;;;;;;5093137;28;20035;-65
2021/08/17 07:43:53;;;;;;;9.27;3.90;;;;;;;;;;5093705;28;20028;-64
2021/08/17 07:46:19;;;;;;;10.63;4.30;;;;;;;;;;5094197;28;20363;-65
2021/08/17 07:48:45;;;;;;;11.38;3.90;;;;;;;;;;5091911;28;20455;-65
2021/08/17 07:51:11;;;;;;;11.85;4.07;;;;;;;;;;5092919;28;20019;-65
2021/08/17 07:53:37;;;;;;;10.45;4.35;;;;;;;;;;5092818;28;20039;-65
2021/08/17 07:56:03;;;;;;;8.60;4.15;;;;;;;;;;5092731;28;20551;-65
2021/08/17 07:58:29;;;;;;;11.13;3.70;;;;;;;;;;5073868;28;20038;-64
2021/08/17 08:00:55;;;;;;;13.30;4.03;;;;;;;;;;5092400;28;20024;-65
2021/08/17 08:03:24;;;;;;;11.82;4.32;;;;;;;;;;5092319;28;20031;-65
2021/08/17 08:05:50;;;;;;;8.98;4.10;;;;;;;;;;5091546;28;20490;-65
2021/08/17 08:08:16;;;;;;;9.38;4.10;;;;;;;;;;5092035;28;20058;-65
2021/08/17 08:10:42;;;;;;;10.77;3.80;;;;;;;;;;5091910;28;20348;-65
2021/08/17 08:13:08;;;;;;;14.20;4.20;;;;;;;;;;5091990;28;20036;-65
2021/08/17 08:15:34;;;;;;;12.32;4.20;;;;;;;;;;5091858;28;20119;-65
2021/08/17 08:18:00;;;;;;;12.82;4.30;;;;;;;;;;5091983;28;20046;-66
2021/08/17 08:20:26;;;;;;;10.73;3.90;;;;;;;;;;5091910;28;20024;-66
2021/08/17 08:22:52;;;;;;;12.27;4.47;;;;;;;;;;5091577;28;20368;-66
2021/08/17 08:25:18;;;;;;;13.43;4.22;;;;;;;;;;5091334;28;20039;-65
2021/08/17 08:27:45;;;;;;;9.70;3.65;;;;;;;;;;5091554;28;20077;-65
2021/08/17 08:30:11;;;;;;;11.75;3.50;;;;;;;;;;5091752;28;20082;-65
2021/08/17 08:32:37;;;;;;;12.88;3.47;;;;;;;;;;5091559;28;20055;-66
2021/08/17 08:35:04;;;;;;;12.75;4.10;;;;;;;;;;5092035;28;20463;-65
2021/08/17 08:37:31;;;;;;;9.10;3.47;;;;;;;;;;5091499;28;20031;-65
2021/08/17 08:39:57;;;;;;;5.25;3.50;;;;;;;;;;5091880;28;20055;-65
2021/08/17 08:42:23;;;;;;;9.88;3.28;;;;;;;;;;5090801;28;20516;-67
2021/08/17 08:44:51;;;;;;;7.82;3.05;;;;;;;;;;5090951;28;20032;-65
2021/08/17 08:47:18;;;;;;;10.15;3.70;;;;;;;;;;5090724;28;20528;-66
2021/08/17 08:49:44;;;;;;;8.90;3.45;;;;;;;;;;5090804;28;20374;-66
2021/08/17 08:52:10;;;;;;;10.65;3.30;;;;;;;;;;5090970;28;20028;-65
2021/08/17 08:54:36;;;;;;;7.05;3.40;;;;;;;;;;5090928;28;20032;-67
2021/08/17 08:57:02;;;;;;;6.00;3.30;;;;;;;;;;5091030;28;20020;-67
2021/08/17 08:59:28;;;;;;;10.35;3.42;;;;;;;;;;5091840;28;20040;-67
2021/08/17 09:02:04;;;;;;;8.73;2.70;;;;;;;;;;5095792;28;20020;-67
2021/08/17 09:04:30;;;;;;;6.13;2.95;;;;;;;;;;5095587;28;20047;-67
2021/08/17 09:06:56;;;;;;;7.28;2.88;;;;;;;;;;5095348;28;20371;-67
2021/08/17 09:09:22;;;;;;;6.03;2.97;;;;;;;;;;5094050;28;20020;-67
2021/08/17 09:11:50;;;;;;;6.75;3.00;;;;;;;;;;5095598;28;20467;-67
2021/08/17 09:14:20;;;;;;;11.60;3.38;;;;;;;;;;5077089;28;20084;-67
2021/08/17 09:16:48;;;;;;;7.40;2.75;;;;;;;;;;5095339;28;20459;-67
2021/08/17 09:19:23;;;;;;;10.02;3.30;;;;;;;;;;5094886;28;20047;-67
2021/08/17 09:21:49;;;;;;;8.45;3.10;;;;;;;;;;5095431;28;20070;-67
2021/08/17 09:24:18;;;;;;;6.93;2.42;;;;;;;;;;5095517;28;20096;-67
2021/08/17 09:26:54;;;;;;;5.18;2.70;;;;;;;;;;5095065;28;20032;-67
2021/08/17 09:29:25;;;;;;;6.50;2.63;;;;;;;;;;5095038;28;20039;-68
2021/08/17 09:31:52;;;;;;;7.70;3.05;;;;;;;;;;5094306;28;20020;-68
2021/08/17 09:34:19;;;;;;;8.18;2.90;;;;;;;;;;5094906;28;20036;-67
2021/08/17 09:36:46;;;;;;;5.70;2.65;;;;;;;;;;5095132;28;20027;-69
2021/08/17 09:39:23;;;;;;;4.93;2.22;;;;;;;;;;5076645;28;20036;-68
2021/08/17 09:41:49;;;;;;;3.15;2.20;;;;;;;;;;5095510;28;20024;-68
2021/08/17 09:44:19;;;;;;;6.85;2.83;;;;;;;;;;5094980;28;20489;-68
2021/08/17 09:46:45;;;;;;;4.65;2.40;;;;;;;;;;5096392;28;20106;-68
2021/08/17 09:49:17;;;;;;;7.30;2.53;;;;;;;;;;5076222;28;20020;-68
2021/08/17 09:51:43;;;;;;;6.75;2.30;;;;;;;;;;5075798;28;20028;-67
2021/08/17 09:54:13;;;;;;;4.65;2.10;;;;;;;;;;5106067;28;20058;-67
2021/08/17 09:56:39;;;;;;;7.50;2.25;;;;;;;;;;5076390;28;20110;-68
2021/08/17 09:59:05;;;;;;;5.43;2.20;;;;;;;;;;5104662;28;20122;-67
2021/08/17 10:01:31;;;;;;;11.45;2.47;;;;;;;;;;5103766;28;20470;-67
2021/08/17 10:03:59;;;;;;;7.97;2.33;;;;;;;;;;5108324;28;20027;-67
2021/08/17 10:06:26;;;;;;;5.50;2.42;;;;;;;;;;5097751;28;20116;-67
2021/08/17 10:08:52;;;;;;;4.97;2.45;;;;;;;;;;5102506;28;20385;-67
2021/08/17 10:11:19;;;;;;;7.15;2.22;;;;;;;;;;5100435;28;20008;-67
2021/08/17 10:13:45;;;;;;;5.30;2.80;;;;;;;;;;5065322;28;20042;-66
2021/08/17 10:16:11;;;;;;;7.88;1.98;;;;;;;;;;4993821;28;20541;-68
2021/08/17 10:18:37;;;;;;;18.02;2.83;;;;;;;;;;5006400;28;20125;-68
2021/08/17 10:21:04;;;;;;;12.07;2.20;;;;;;;;;;5080105;28;20026;-67
2021/08/17 10:23:31;;;;;;;17.35;2.47;;;;;;;;;;5076259;28;20045;-68
2021/08/17 10:25:58;;;;;;;7.65;2.25;;;;;;;;;;4999397;28;20029;-67
2021/08/17 10:28:27;;;;;;;5.68;2.35;;;;;;;;;;5003455;28;20109;-66
2021/08/17 10:30:53;;;;;;;6.63;2.28;;;;;;;;;;5002799;28;20067;-66
2021/08/17 10:33:37;;;;;;;6.28;2.17;;;;;;;;;;4999154;28;20368;-66
2021/08/17 10:36:03;;;;;;;4.25;1.88;;;;;;;;;;5002235;28;20024;-67
2021/08/17 10:38:29;;;;;;;8.10;2.40;;;;;;;;;;4998938;28;20092;-68
2021/08/17 10:40:55;;;;;;;13.52;1.90;;;;;;;;;;5005719;28;20018;-68
2021/08/17 10:43:25;;;;;;;8.02;1.98;;;;;;;;;;5005767;28;20361;-67
2021/08/17 10:45:52;;;;;;;16.17;2.78;;;;;;;;;;5003062;28;20025;-67
2021/08/17 10:48:36;;;;;;;4.75;1.90;;;;;;;;;;5003394;28;20038;-67
2021/08/17 10:51:02;;;;;;;6.10;2.17;;;;;;;;;;5002625;28;20036;-67
2021/08/17 10:53:37;;;;;;;6.13;2.10;;;;;;;;;;5001304;28;20030;-67
2021/08/17 10:56:14;;;;;;;5.30;2.30;;;;;;;;;;5067831;28;20113;-68
2021/08/17 10:58:41;;;;;;;4.60;1.85;;;;;;;;;;5002806;28;20072;-67
2021/08/17 11:01:07;;;;;;;8.40;1.77;;;;;;;;;;5001952;28;20018;-67
2021/08/17 11:03:41;;;;;;;7.53;1.67;;;;;;;;;;5002261;28;20484;-67
2021/08/17 11:06:07;;;;;;;5.85;1.85;;;;;;;;;;5005240;28;20476;-67
2021/08/17 11:08:34;;;;;;;4.60;1.73;;;;;;;;;;4992088;28;20035;-69
2021/08/17 11:11:05;;;;;;;11.95;1.80;;;;;;;;;;4992098;28;20030;-69
2021/08/17 11:13:31;;;;;;;4.97;1.60;;;;;;;;;;5001221;28;20505;-67
2021/08/17 11:16:10;;;;;;;5.13;1.60;;;;;;;;;;5093930;28;20046;-67
2021/08/17 11:18:49;;;;;;;6.90;1.83;;;;;;;;;;5093908;28;20039;-68
2021/08/17 11:21:28;;;;;;;4.53;1.50;;;;;;;;;;5093904;28;20426;-68
2021/08/17 11:24:09;;;;;;;4.35;1.20;;;;;;;;;;5093457;28;20024;-68
2021/08/17 11:26:36;;;;;;;4.32;1.45;;;;;;;;;;5073379;28;20040;-68
2021/08/17 11:29:02;;;;;;;5.07;1.60;;;;;;;;;;5073721;28;20112;-68
2021/08/17 11:31:29;;;;;;;3.70;1.35;;;;;;;;;;5075446;28;20074;-68
2021/08/17 11:34:13;;;;;;;7.68;1.00;;;;;;;;;;5093685;28;20024;-67
2021/08/17 11:36:39;;;;;;;7.05;1.80;;;;;;;;;;5093729;28;20081;-69
2021/08/17 11:39:21;;;;;;;3.58;1.10;;;;;;;;;;5093669;28;20028;-70
2021/08/17 11:41:48;;;;;;;4.20;1.30;;;;;;;;;;5093574;28;20034;-69
2021/08/17 11:44:14;;;;;;;10.25;1.17;;;;;;;;;;5093580;28;20466;-68
2021/08/17 11:46:40;;;;;;;6.53;1.52;;;;;;;;;;5093384;28;20035;-67
2021/08/17 11:49:19;;;;;;;3.97;1.13;;;;;;;;;;5093566;28;20024;-68
2021/08/17 11:51:45;;;;;;;5.70;1.20;;;;;;;;;;5093555;28;20020;-67
2021/08/17 11:54:18;;;;;;;4.13;1.00;;;;;;;;;;5075158;28;20352;-68
2021/08/17 11:56:44;;;;;;;4.50;1.30;;;;;;;;;;5093210;28;20568;-68
2021/08/17 11:59:10;;;;;;;10.07;1.50;;;;;;;;;;5093267;28;20040;-68
2021/08/17 12:01:36;;;;;;;7.53;1.05;;;;;;;;;;5093285;28;20405;-68
2021/08/17 12:04:06;;;;;;;5.00;1.40;;;;;;;;;;5093531;28;20066;-70
2021/08/17 12:06:32;;;;;;;5.07;1.10;;;;;;;;;;5093427;28;20027;-68
2021/08/17 12:09:16;;;;;;;2.75;1.05;;;;;;;;;;5093163;28;20107;-68
2021/08/17 12:12:01;;;;;;;6.25;1.23;;;;;;;;;;5093206;28;20028;-69
2021/08/17 12:14:27;;;;;;;5.10;1.30;;;;;;;;;;5092923;28;20071;-68
2021/08/17 12:16:56;;;;;;;2.58;0.90;;;;;;;;;;5093088;28;20020;-67
2021/08/17 12:19:22;;;;;;;7.57;1.20;;;;;;;;;;5092934;28;20352;-69
2021/08/17 12:21:49;;;;;;;3.75;1.10;;;;;;;;;;5093194;28;20028;-68
2021/08/17 12:24:26;;;;;;;9.25;1.08;;;;;;;;;;5093175;28;20147;-69
2021/08/17 12:26:53;;;;;;;8.88;1.20;;;;;;;;;;5092996;28;20020;-67
2021/08/17 12:29:23;;;;;;;3.22;1.00;;;;;;;;;;5093193;28;20032;-68
2021/08/17 12:31:49;;;;;;;5.70;1.00;;;;;;;;;;5093032;28;20040;-68
2021/08/17 12:34:15;;;;;;;89.88;2.28;;;;;;;;;;5093484;28;20028;-68
2021/08/17 12:36:41;;;;;;;23.80;1.17;;;;;;;;;;5092954;28;20027;-68
2021/08/17 12:39:08;;;;;;;32.67;1.45;;;;;;;;;;5112205;28;20039;-67
2021/08/17 12:41:35;;;;;;;49.70;2.10;;;;;;;;;;5113165;28;20027;-67
2021/08/17 12:44:01;;;;;;;30.15;1.40;;;;;;;;;;5112908;28;20467;-67
2021/08/17 12:46:27;;;;;;;9.38;1.40;;;;;;;;;;5113242;28;20023;-69
2021/08/17 12:48:53;;;;;;;11.18;1.33;;;;;;;;;;5101404;28;20341;-69
2021/08/17 12:51:20;;;;;;;16.80;1.27;;;;;;;;;;5092295;28;20115;-68
2021/08/17 12:53:46;;;;;;;16.27;1.13;;;;;;;;;;5074500;28;20093;-67
2021/08/17 12:56:12;;;;;;;16.23;1.33;;;;;;;;;;5092297;28;20529;-67
2021/08/17 12:58:38;;;;;;;14.55;0.90;;;;;;;;;;5092556;28;20035;-67
2021/08/17 13:01:05;;;;;;;27.70;1.90;;;;;;;;;;5092584;28;20043;-68
2021/08/17 13:03:30;;;;;;;14.20;1.52;;;;;;;;;;5092440;28;20460;-68
2021/08/17 13:05:57;;;;;;;29.48;1.33;;;;;;;;;;5074298;28;20024;-67
2021/08/17 13:08:23;;;;;;;18.02;1.40;;;;;;;;;;5092439;28;20035;-68
2021/08/17 13:10:49;;;;;;;25.92;2.20;;;;;;;;;;5074365;28;20020;-67
2021/08/17 13:13:15;;;;;;;110.88;4.40;;;;;;;;;;5074384;28;20497;-67
2021/08/17 13:15:42;;;;;;;89.43;5.57;;;;;;;;;;5092650;28;20119;-70
2021/08/17 13:18:08;;;;;;;97.78;5.97;;;;;;;;;;5092710;28;20032;-69
2021/08/17 13:20:34;;;;;;;138.63;6.03;;;;;;;;;;5095506;28;20023;-70
2021/08/17 13:23:00;;;;;;;108.57;5.20;;;;;;;;;;5096876;28;20044;-70
2021/08/17 13:25:26;;;;;;;134.27;5.28;;;;;;;;;;5105949;28;20031;-69
2021/08/17 13:27:52;;;;;;;116.85;4.68;;;;;;;;;;5080639;28;20078;-69
2021/08/17 13:30:18;;;;;;;136.50;6.03;;;;;;;;;;5074581;28;20024;-69
2021/08/17 13:32:45;;;;;;;87.82;5.32;;;;;;;;;;5092466;28;20111;-71
2021/08/17 13:35:11;;;;;;;113.35;5.15;;;;;;;;;;5092629;28;20073;-70
2021/08/17 13:37:37;;;;;;;89.00;4.18;;;;;;;;;;5074426;28;20024;-70
2021/08/17 13:40:04;;;;;;;99.00;4.85;;;;;;;;;;5092636;28;20068;-70
2021/08/17 13:42:30;;;;;;;48.50;3.47;;;;;;;;;;5092274;28;20489;-71
2021/08/17 13:44:56;;;;;;;45.80;3.08;;;;;;;;;;5092451;28;20056;-70
2021/08/17 13:47:22;;;;;;;43.33;1.67;;;;;;;;;;5077878;28;20063;-70
2021/08/17 13:49:49;;;;;;;26.48;1.67;;;;;;;;;;5096472;28;20024;-70
2021/08/17 13:52:15;;;;;;;14.60;1.67;;;;;;;;;;5096023;28;20028;-70
2021/08/17 13:54:41;;;;;;;37.90;2.33;;;;;;;;;;5077832;28;20024;-70
2021/08/17 13:57:07;;;;;;;14.13;1.00;;;;;;;;;;5077591;28;20028;-69
2021/08/17 13:59:33;;;;;;;13.23;1.00;;;;;;;;;;5077757;28;20032;-70
2021/08/17 14:01:59;;;;;;;57.03;1.33;;;;;;;;;;5096051;28;20023;-70
2021/08/17 14:04:25;;;;;;;15.60;0.80;;;;;;;;;;5096332;28;20043;-71
2021/08/17 14:06:51;;;;;;;21.65;1.20;;;;;;;;;;5095524;28;20070;-70
2021/08/17 14:09:17;;;;;;;15.00;1.17;;;;;;;;;;5096262;28;20027;-73
2021/08/17 14:11:44;;;;;;;19.92;0.75;;;;;;;;;;5095804;28;20032;-75
2021/08/17 14:14:11;;;;;;;6.90;0.80;;;;;;;;;;5060880;28;20046;-70
2021/08/17 14:16:39;;;;;;;2.45;0.82;;;;;;;;;;4993129;28;20053;-73
2021/08/17 14:19:05;;;;;;;2.75;0.60;;;;;;;;;;5061272;28;20099;-76
2021/08/17 14:21:31;;;;;;;0.93;0.50;;;;;;;;;;4993212;28;20029;-72
2021/08/17 14:23:57;;;;;;;6.70;0.65;;;;;;;;;;4992678;28;20540;-73
2021/08/17 14:26:25;;;;;;;2.60;1.02;;;;;;;;;;4994126;28;20030;-76
2021/08/17 14:28:52;;;;;;;3.92;0.75;;;;;;;;;;4993150;28;20029;-75
2021/08/17 14:31:18;;;;;;;13.35;0.57;;;;;;;;;;5060641;28;20384;-75
2021/08/17 14:33:44;;;;;;;6.75;0.63;;;;;;;;;;4992447;28;20366;-73
2021/08/17 14:36:11;;;;;;;11.48;0.60;;;;;;;;;;4993423;28;20034;-73